Time;durP1;ratioP1;P1;durP2;ratioP2;P2;SDS_P1;SDS_P2;PMS_P1;PMS_P2;Temp;Humidity;BMP_temperature;BMP_pressure;BME280_temperature;BME280_humidity;BME280_pressure;Samples;Min_cycle;Max_cycle;Signal;HPM_P1;HPM_P2
2022/08/30 00:02:59;;;;;;;4.53;3.08;;;;;;;;;;4990313;28;20053;-59
2022/08/30 00:05:25;;;;;;;5.35;3.08;;;;;;;;;;4994291;28;20038;-59
2022/08/30 00:07:51;;;;;;;6.00;3.13;;;;;;;;;;4990012;28;20027;-59
2022/08/30 00:10:17;;;;;;;5.53;2.70;;;;;;;;;;4992981;28;20042;-61
2022/08/30 00:12:42;;;;;;;4.88;2.80;;;;;;;;;;4990633;28;20038;-60
2022/08/30 00:15:09;;;;;;;5.60;2.90;;;;;;;;;;4992983;28;20049;-60
2022/08/30 00:17:35;;;;;;;3.63;2.60;;;;;;;;;;4991774;28;20030;-60
2022/08/30 00:20:01;;;;;;;3.85;2.80;;;;;;;;;;4993446;28;20041;-60
2022/08/30 00:22:27;;;;;;;5.40;2.85;;;;;;;;;;4991859;28;20057;-59
2022/08/30 00:24:52;;;;;;;3.72;2.63;;;;;;;;;;4989189;28;20197;-60
2022/08/30 00:27:18;;;;;;;5.82;2.88;;;;;;;;;;4993806;28;20077;-60
2022/08/30 00:29:43;;;;;;;4.20;3.13;;;;;;;;;;4988395;28;20034;-60
2022/08/30 00:32:08;;;;;;;4.05;2.90;;;;;;;;;;4990823;28;20041;-60
2022/08/30 00:34:34;;;;;;;5.45;3.00;;;;;;;;;;4991594;28;20037;-59
2022/08/30 00:36:59;;;;;;;4.00;3.00;;;;;;;;;;4992013;28;20606;-59
2022/08/30 00:39:25;;;;;;;5.57;3.17;;;;;;;;;;4993508;28;20427;-59
2022/08/30 00:41:51;;;;;;;5.03;2.90;;;;;;;;;;4991131;28;20054;-60
2022/08/30 00:44:16;;;;;;;5.47;3.03;;;;;;;;;;4990771;28;20403;-60
2022/08/30 00:46:42;;;;;;;5.68;2.90;;;;;;;;;;4993417;28;20412;-60
2022/08/30 00:49:09;;;;;;;4.70;2.60;;;;;;;;;;4991539;28;20038;-59
2022/08/30 00:51:35;;;;;;;4.50;2.90;;;;;;;;;;4993300;28;20041;-59
2022/08/30 00:54:02;;;;;;;4.65;2.90;;;;;;;;;;4990914;28;20034;-59
2022/08/30 00:56:28;;;;;;;4.32;2.90;;;;;;;;;;4993054;28;20034;-59
2022/08/30 00:58:56;;;;;;;5.47;2.72;;;;;;;;;;4977308;28;20042;-59
2022/08/30 01:01:22;;;;;;;5.88;2.85;;;;;;;;;;4993169;28;20403;-59
2022/08/30 01:03:48;;;;;;;3.35;2.60;;;;;;;;;;4988452;28;20045;-59
2022/08/30 01:06:14;;;;;;;3.75;2.92;;;;;;;;;;4994081;28;20030;-60
2022/08/30 01:08:40;;;;;;;4.30;2.75;;;;;;;;;;4990436;28;20130;-60
2022/08/30 01:11:07;;;;;;;8.05;3.00;;;;;;;;;;4992826;28;20085;-59
2022/08/30 01:13:34;;;;;;;7.88;2.97;;;;;;;;;;4992674;28;20093;-59
2022/08/30 01:15:59;;;;;;;3.45;3.00;;;;;;;;;;4992853;28;20030;-59
2022/08/30 01:18:25;;;;;;;3.97;3.00;;;;;;;;;;4992132;28;20445;-60
2022/08/30 01:21:02;;;;;;;5.35;3.00;;;;;;;;;;4992066;28;20053;-60
2022/08/30 01:23:30;;;;;;;6.07;2.85;;;;;;;;;;4993810;28;20118;-59
2022/08/30 01:25:56;;;;;;;5.50;3.10;;;;;;;;;;4988100;28;20104;-60
2022/08/30 01:28:25;;;;;;;5.03;2.70;;;;;;;;;;4992906;28;20109;-60
2022/08/30 01:30:50;;;;;;;3.85;2.90;;;;;;;;;;4990654;28;20467;-61
2022/08/30 01:33:18;;;;;;;6.82;2.78;;;;;;;;;;4990744;28;20037;-59
2022/08/30 01:36:03;;;;;;;5.60;3.08;;;;;;;;;;4990413;28;20042;-60
2022/08/30 01:38:46;;;;;;;5.82;2.95;;;;;;;;;;4983102;28;20444;-60
2022/08/30 01:41:23;;;;;;;5.00;3.22;;;;;;;;;;4983755;28;20360;-60
2022/08/30 01:43:51;;;;;;;4.80;3.10;;;;;;;;;;4984011;28;20042;-60
2022/08/30 01:46:19;;;;;;;5.22;3.10;;;;;;;;;;4984098;28;20439;-60
2022/08/30 01:48:45;;;;;;;6.15;3.20;;;;;;;;;;4988231;28;20027;-60
2022/08/30 01:51:12;;;;;;;4.43;3.30;;;;;;;;;;4993085;28;20085;-60
2022/08/30 01:53:39;;;;;;;5.07;3.10;;;;;;;;;;4989944;28;20041;-59
2022/08/30 01:56:06;;;;;;;4.18;3.05;;;;;;;;;;4994966;28;20112;-60
2022/08/30 01:58:32;;;;;;;4.90;3.47;;;;;;;;;;4990201;28;20490;-60
2022/08/30 02:00:57;;;;;;;5.82;3.25;;;;;;;;;;4990240;28;20467;-60
2022/08/30 02:03:25;;;;;;;4.85;3.20;;;;;;;;;;4989723;28;20034;-59
2022/08/30 02:05:51;;;;;;;4.47;3.00;;;;;;;;;;4978047;28;20451;-60
2022/08/30 02:08:17;;;;;;;6.40;3.22;;;;;;;;;;4989828;28;20039;-60
2022/08/30 02:10:42;;;;;;;5.72;3.30;;;;;;;;;;4987832;28;20034;-61
2022/08/30 02:13:08;;;;;;;5.65;3.13;;;;;;;;;;4989673;28;20101;-60
2022/08/30 02:15:34;;;;;;;5.63;3.40;;;;;;;;;;4987895;28;20026;-60
2022/08/30 02:17:59;;;;;;;3.78;3.22;;;;;;;;;;4986252;28;20090;-60
2022/08/30 02:20:25;;;;;;;4.80;3.33;;;;;;;;;;4987740;28;20038;-60
2022/08/30 02:22:50;;;;;;;4.43;3.25;;;;;;;;;;4991915;28;20109;-60
2022/08/30 02:25:16;;;;;;;6.50;3.45;;;;;;;;;;4990937;28;20068;-61
2022/08/30 02:27:41;;;;;;;6.38;3.38;;;;;;;;;;4990431;28;20036;-60
2022/08/30 02:30:09;;;;;;;4.88;3.55;;;;;;;;;;4988723;28;20419;-59
2022/08/30 02:32:34;;;;;;;6.32;3.40;;;;;;;;;;4992679;28;20093;-61
2022/08/30 02:34:59;;;;;;;5.95;3.50;;;;;;;;;;4987021;28;20030;-60
2022/08/30 02:37:25;;;;;;;5.72;3.30;;;;;;;;;;4991364;28;20101;-60
2022/08/30 02:39:50;;;;;;;6.20;3.70;;;;;;;;;;4987420;28;20060;-60
2022/08/30 02:42:16;;;;;;;5.85;3.60;;;;;;;;;;4991449;28;20089;-59
2022/08/30 02:44:41;;;;;;;4.65;3.63;;;;;;;;;;4985592;28;20472;-60
2022/08/30 02:47:07;;;;;;;6.35;3.85;;;;;;;;;;4989474;28;20113;-60
2022/08/30 02:49:32;;;;;;;5.93;3.83;;;;;;;;;;4990230;28;20038;-59
2022/08/30 02:51:58;;;;;;;5.78;3.67;;;;;;;;;;4991188;28;20041;-59
2022/08/30 02:54:23;;;;;;;6.72;4.05;;;;;;;;;;4989515;28;20390;-61
2022/08/30 02:56:49;;;;;;;6.20;3.70;;;;;;;;;;4988059;28;20065;-61
2022/08/30 02:59:16;;;;;;;5.25;3.80;;;;;;;;;;4986480;28;20535;-60
2022/08/30 03:01:42;;;;;;;7.18;3.80;;;;;;;;;;4990115;28;20133;-61
2022/08/30 03:04:08;;;;;;;6.00;3.90;;;;;;;;;;4989603;28;20109;-61
2022/08/30 03:06:34;;;;;;;5.50;3.88;;;;;;;;;;4989745;28;20042;-60
2022/08/30 03:09:00;;;;;;;5.15;3.83;;;;;;;;;;4988851;28;20038;-60
2022/08/30 03:11:25;;;;;;;8.07;4.35;;;;;;;;;;4989245;28;20498;-63
2022/08/30 03:13:51;;;;;;;5.65;4.30;;;;;;;;;;4989527;28;20026;-61
2022/08/30 03:16:16;;;;;;;6.88;4.57;;;;;;;;;;4987979;28;20459;-60
2022/08/30 03:18:42;;;;;;;5.50;4.30;;;;;;;;;;4989940;28;20038;-61
2022/08/30 03:21:14;;;;;;;6.30;4.20;;;;;;;;;;4988993;28;20042;-60
2022/08/30 03:23:41;;;;;;;7.80;4.20;;;;;;;;;;4991092;28;20080;-61
2022/08/30 03:26:07;;;;;;;6.82;4.50;;;;;;;;;;4988738;28;20038;-60
2022/08/30 03:28:33;;;;;;;10.40;4.45;;;;;;;;;;4990886;28;20030;-60
2022/08/30 03:30:59;;;;;;;6.72;4.47;;;;;;;;;;4987987;28;20040;-61
2022/08/30 03:33:25;;;;;;;5.22;4.40;;;;;;;;;;4987804;28;20116;-60
2022/08/30 03:35:50;;;;;;;6.82;4.30;;;;;;;;;;4988679;28;20034;-60
2022/08/30 03:38:16;;;;;;;7.07;4.72;;;;;;;;;;4989194;28;20041;-59
2022/08/30 03:40:42;;;;;;;8.25;4.40;;;;;;;;;;4990533;28;20053;-60
2022/08/30 03:43:07;;;;;;;6.30;4.80;;;;;;;;;;4987814;28;20026;-60
2022/08/30 03:45:33;;;;;;;7.78;4.47;;;;;;;;;;4987403;28;20468;-60
2022/08/30 03:48:01;;;;;;;7.38;4.60;;;;;;;;;;4988738;28;20030;-59
2022/08/30 03:50:27;;;;;;;7.97;4.80;;;;;;;;;;4990344;28;20037;-60
2022/08/30 03:52:53;;;;;;;8.98;4.80;;;;;;;;;;4987825;28;20045;-60
2022/08/30 03:55:19;;;;;;;8.40;4.97;;;;;;;;;;4990741;28;20034;-60
2022/08/30 03:57:45;;;;;;;7.10;4.75;;;;;;;;;;4984337;28;20386;-58
2022/08/30 04:00:12;;;;;;;5.28;4.25;;;;;;;;;;4987808;28;20042;-60
2022/08/30 04:02:38;;;;;;;7.30;4.75;;;;;;;;;;4988237;28;20030;-60
2022/08/30 04:05:04;;;;;;;6.55;5.00;;;;;;;;;;4985066;28;20479;-59
2022/08/30 04:07:29;;;;;;;9.40;4.85;;;;;;;;;;4990854;28;20030;-61
2022/08/30 04:09:55;;;;;;;8.95;4.95;;;;;;;;;;4992663;28;20026;-60
2022/08/30 04:12:21;;;;;;;5.88;4.40;;;;;;;;;;4994245;28;20109;-60
2022/08/30 04:14:47;;;;;;;6.65;4.80;;;;;;;;;;4990823;28;20040;-60
2022/08/30 04:17:12;;;;;;;7.03;5.05;;;;;;;;;;4992694;28;20038;-61
2022/08/30 04:19:38;;;;;;;7.47;4.90;;;;;;;;;;4991776;28;20038;-60
2022/08/30 04:22:04;;;;;;;6.85;4.68;;;;;;;;;;4994128;28;20034;-60
2022/08/30 04:24:30;;;;;;;6.00;4.82;;;;;;;;;;4988615;28;20096;-59
2022/08/30 04:26:55;;;;;;;6.22;4.93;;;;;;;;;;4991714;28;20034;-60
2022/08/30 04:29:21;;;;;;;10.43;5.07;;;;;;;;;;4990714;28;20395;-64
2022/08/30 04:31:46;;;;;;;7.18;4.72;;;;;;;;;;4992873;28;20039;-59
2022/08/30 04:34:12;;;;;;;5.90;4.45;;;;;;;;;;4991221;28;20833;-60
2022/08/30 04:36:38;;;;;;;6.68;4.60;;;;;;;;;;4993956;28;20034;-59
2022/08/30 04:39:04;;;;;;;6.32;4.72;;;;;;;;;;4990253;28;20041;-60
2022/08/30 04:41:30;;;;;;;8.32;4.05;;;;;;;;;;4992746;28;20034;-60
2022/08/30 04:43:55;;;;;;;6.15;4.70;;;;;;;;;;4990383;28;20110;-60
2022/08/30 04:46:21;;;;;;;6.93;4.70;;;;;;;;;;4990708;28;20398;-61
2022/08/30 04:48:46;;;;;;;7.78;4.57;;;;;;;;;;4992425;28;20037;-61
2022/08/30 04:51:15;;;;;;;6.07;4.80;;;;;;;;;;4991424;28;20205;-61
2022/08/30 04:53:41;;;;;;;6.47;4.90;;;;;;;;;;4992151;28;20041;-60
2022/08/30 04:56:09;;;;;;;7.35;4.80;;;;;;;;;;4990551;28;20041;-61
2022/08/30 04:58:35;;;;;;;9.45;4.85;;;;;;;;;;4992570;28;20058;-61
2022/08/30 05:01:00;;;;;;;6.93;4.85;;;;;;;;;;4986925;28;20038;-62
2022/08/30 05:03:26;;;;;;;5.88;4.60;;;;;;;;;;4991980;28;20073;-60
2022/08/30 05:05:51;;;;;;;6.95;5.05;;;;;;;;;;4991811;28;20030;-61
2022/08/30 05:08:19;;;;;;;8.68;4.65;;;;;;;;;;4992629;28;20039;-60
2022/08/30 05:10:48;;;;;;;7.70;5.10;;;;;;;;;;4991635;28;20042;-60
2022/08/30 05:13:16;;;;;;;6.93;4.82;;;;;;;;;;4990609;28;20030;-61
2022/08/30 05:15:42;;;;;;;6.38;4.80;;;;;;;;;;4990033;28;20032;-61
2022/08/30 05:18:09;;;;;;;6.90;5.22;;;;;;;;;;4990856;28;20407;-60
2022/08/30 05:20:35;;;;;;;6.88;4.68;;;;;;;;;;4991248;28;20034;-60
2022/08/30 05:23:02;;;;;;;7.85;4.95;;;;;;;;;;4992837;28;20046;-60
2022/08/30 05:25:30;;;;;;;9.95;5.38;;;;;;;;;;4985745;28;20042;-61
2022/08/30 05:27:56;;;;;;;7.15;5.18;;;;;;;;;;4987670;28;20475;-61
2022/08/30 05:30:23;;;;;;;5.70;4.82;;;;;;;;;;4990280;28;20046;-60
2022/08/30 05:32:49;;;;;;;7.40;5.30;;;;;;;;;;4992530;28;20034;-61
2022/08/30 05:35:16;;;;;;;6.18;5.30;;;;;;;;;;4991586;28;20060;-63
2022/08/30 05:37:41;;;;;;;7.30;5.60;;;;;;;;;;4993144;28;20030;-62
2022/08/30 05:40:08;;;;;;;9.75;5.80;;;;;;;;;;4990352;28;20034;-61
2022/08/30 05:42:35;;;;;;;6.47;4.88;;;;;;;;;;4992187;28;20392;-60
2022/08/30 05:45:01;;;;;;;10.07;5.75;;;;;;;;;;4991507;28;20096;-62
2022/08/30 05:47:26;;;;;;;6.22;5.35;;;;;;;;;;4990662;28;20467;-61
2022/08/30 05:49:52;;;;;;;6.78;5.38;;;;;;;;;;4990667;28;20040;-61
2022/08/30 05:52:18;;;;;;;7.72;5.40;;;;;;;;;;4987091;28;20026;-61
2022/08/30 05:54:44;;;;;;;7.97;5.30;;;;;;;;;;4992427;28;20419;-62
2022/08/30 05:57:10;;;;;;;6.88;5.60;;;;;;;;;;4985317;28;20054;-63
2022/08/30 05:59:36;;;;;;;6.80;5.55;;;;;;;;;;4992339;28;20084;-62
2022/08/30 06:02:01;;;;;;;7.10;5.28;;;;;;;;;;4991160;28;20096;-64
2022/08/30 06:04:27;;;;;;;6.38;5.28;;;;;;;;;;4990552;28;20696;-61
2022/08/30 06:06:53;;;;;;;8.15;5.10;;;;;;;;;;4990926;28;20472;-62
2022/08/30 06:09:18;;;;;;;6.93;5.25;;;;;;;;;;4992340;28;20034;-62
2022/08/30 06:11:45;;;;;;;8.60;5.25;;;;;;;;;;4990839;28;20218;-63
2022/08/30 06:14:11;;;;;;;7.15;5.40;;;;;;;;;;4989953;28;20403;-64
2022/08/30 06:16:38;;;;;;;6.55;5.25;;;;;;;;;;4992636;28;20030;-62
2022/08/30 06:19:04;;;;;;;7.10;5.40;;;;;;;;;;4990077;28;20038;-62
2022/08/30 06:21:33;;;;;;;8.35;5.35;;;;;;;;;;4992671;28;20113;-61
2022/08/30 06:23:59;;;;;;;7.85;5.40;;;;;;;;;;4990751;28;20034;-63
2022/08/30 06:26:25;;;;;;;7.32;4.78;;;;;;;;;;4992318;28;20490;-61
2022/08/30 06:28:51;;;;;;;7.25;4.82;;;;;;;;;;4990928;28;20069;-60
2022/08/30 06:31:19;;;;;;;8.48;4.80;;;;;;;;;;4990361;28;20061;-62
2022/08/30 06:33:44;;;;;;;9.55;5.20;;;;;;;;;;4992349;28;20038;-61
2022/08/30 06:36:13;;;;;;;6.60;4.90;;;;;;;;;;4990084;28;20030;-61
2022/08/30 06:38:39;;;;;;;9.10;4.80;;;;;;;;;;4992218;28;20179;-61
2022/08/30 06:41:09;;;;;;;5.68;4.47;;;;;;;;;;4989170;28;20084;-59
2022/08/30 06:43:36;;;;;;;6.68;4.53;;;;;;;;;;4991306;28;20035;-60
2022/08/30 06:46:04;;;;;;;6.90;4.82;;;;;;;;;;4982105;28;21856;-62
2022/08/30 06:48:29;;;;;;;5.93;4.53;;;;;;;;;;4990379;28;20035;-62
2022/08/30 06:50:55;;;;;;;7.60;4.47;;;;;;;;;;4991093;28;20368;-62
2022/08/30 06:53:21;;;;;;;6.18;4.50;;;;;;;;;;4990510;28;20386;-61
2022/08/30 06:56:07;;;;;;;7.75;4.60;;;;;;;;;;4988387;28;20030;-63
2022/08/30 06:58:34;;;;;;;6.70;4.30;;;;;;;;;;4975242;28;20475;-63
2022/08/30 07:01:00;;;;;;;7.05;4.20;;;;;;;;;;4991327;28;20038;-63
2022/08/30 07:03:26;;;;;;;5.93;4.50;;;;;;;;;;4991316;28;20045;-61
2022/08/30 07:05:53;;;;;;;4.60;4.10;;;;;;;;;;4987144;28;20026;-61
2022/08/30 07:08:19;;;;;;;7.30;4.18;;;;;;;;;;4988628;28;20061;-61
2022/08/30 07:10:45;;;;;;;8.27;4.15;;;;;;;;;;4991815;28;20050;-62
2022/08/30 07:13:11;;;;;;;7.75;4.25;;;;;;;;;;4990575;28;20042;-61
2022/08/30 07:15:40;;;;;;;6.90;4.13;;;;;;;;;;4988848;28;20394;-61
2022/08/30 07:20:49;;;;;;;7.45;4.20;;;;;;;;;;4992012;28;20491;-61
2022/08/30 07:23:15;;;;;;;5.72;4.20;;;;;;;;;;4990089;28;20121;-62
2022/08/30 07:25:40;;;;;;;5.32;3.83;;;;;;;;;;4990516;28;20424;-62
2022/08/30 07:28:08;;;;;;;6.88;3.70;;;;;;;;;;4988910;28;20030;-63
2022/08/30 07:30:34;;;;;;;6.80;4.15;;;;;;;;;;4992181;28;20094;-62
2022/08/30 07:32:59;;;;;;;5.68;3.85;;;;;;;;;;4990066;28;20100;-63
2022/08/30 07:35:25;;;;;;;7.38;3.83;;;;;;;;;;4987839;28;20467;-61
2022/08/30 07:37:51;;;;;;;7.25;4.28;;;;;;;;;;4991331;28;20096;-62
2022/08/30 07:40:16;;;;;;;5.43;3.72;;;;;;;;;;4991355;28;20483;-61
2022/08/30 07:42:42;;;;;;;5.55;3.50;;;;;;;;;;4995671;28;20128;-61
2022/08/30 07:45:09;;;;;;;6.30;3.72;;;;;;;;;;4991495;28;20026;-62
2022/08/30 07:47:35;;;;;;;5.20;3.53;;;;;;;;;;4995075;28;20368;-62
2022/08/30 07:50:00;;;;;;;5.90;3.40;;;;;;;;;;4994186;28;20061;-63
2022/08/30 07:52:27;;;;;;;8.00;3.72;;;;;;;;;;4995117;28;20030;-60
2022/08/30 07:54:55;;;;;;;6.63;3.33;;;;;;;;;;4991698;28;20037;-60
2022/08/30 07:57:21;;;;;;;6.55;3.30;;;;;;;;;;4994318;28;20038;-61
2022/08/30 07:59:46;;;;;;;5.38;3.10;;;;;;;;;;4994336;28;20093;-62
2022/08/30 08:02:12;;;;;;;8.13;4.82;;;;;;;;;;4994442;28;20030;-61
2022/08/30 08:04:37;;;;;;;4.28;3.40;;;;;;;;;;4990735;28;20076;-62
2022/08/30 08:07:03;;;;;;;5.22;3.42;;;;;;;;;;4994158;28;20033;-62
2022/08/30 08:09:28;;;;;;;6.18;3.60;;;;;;;;;;4993222;28;20045;-62
2022/08/30 08:11:54;;;;;;;4.40;3.13;;;;;;;;;;4993806;28;20026;-61
2022/08/30 08:14:22;;;;;;;4.60;3.47;;;;;;;;;;4989434;28;20137;-61
2022/08/30 08:16:48;;;;;;;4.80;3.30;;;;;;;;;;4994743;28;20045;-63
2022/08/30 08:19:14;;;;;;;6.53;3.42;;;;;;;;;;4992884;28;20035;-62
2022/08/30 08:21:39;;;;;;;9.85;3.30;;;;;;;;;;4994872;28;20038;-61
2022/08/30 08:24:05;;;;;;;4.15;3.20;;;;;;;;;;4991781;28;20034;-60
2022/08/30 08:26:34;;;;;;;8.02;3.58;;;;;;;;;;4992537;28;20022;-62
2022/08/30 08:29:00;;;;;;;9.30;3.55;;;;;;;;;;4986030;28;20496;-62
2022/08/30 08:31:27;;;;;;;4.60;3.20;;;;;;;;;;4993909;28;20125;-61
2022/08/30 08:33:53;;;;;;;3.88;2.65;;;;;;;;;;4993390;28;20073;-62
2022/08/30 08:36:18;;;;;;;5.10;2.60;;;;;;;;;;4990148;28;20100;-61
2022/08/30 08:38:44;;;;;;;6.55;2.85;;;;;;;;;;4992946;28;20042;-61
2022/08/30 08:41:31;;;;;;;6.28;3.00;;;;;;;;;;4993658;28;20125;-61
2022/08/30 08:43:57;;;;;;;4.15;3.00;;;;;;;;;;4992871;28;20049;-62
2022/08/30 08:46:38;;;;;;;5.88;2.90;;;;;;;;;;4990688;28;20034;-62
2022/08/30 08:49:06;;;;;;;5.65;2.70;;;;;;;;;;4993286;28;20113;-63
2022/08/30 08:54:41;;;;;;;3.97;2.80;;;;;;;;;;4992414;28;20120;-61
2022/08/30 08:57:08;;;;;;;3.75;2.58;;;;;;;;;;4988545;28;20380;-62
2022/08/30 08:59:33;;;;;;;3.45;2.80;;;;;;;;;;4994196;28;20050;-62
2022/08/30 09:02:08;;;;;;;4.85;2.70;;;;;;;;;;4992653;28;20113;-62
2022/08/30 09:04:36;;;;;;;3.42;2.13;;;;;;;;;;4988801;28;20506;-61
2022/08/30 09:07:18;;;;;;;3.75;2.33;;;;;;;;;;4990156;28;20483;-63
2022/08/30 09:09:44;;;;;;;4.10;2.38;;;;;;;;;;4993886;28;20034;-61
2022/08/30 09:12:12;;;;;;;5.18;2.72;;;;;;;;;;4992078;28;20045;-61
2022/08/30 09:14:41;;;;;;;4.68;2.72;;;;;;;;;;4989155;28;20041;-61
2022/08/30 09:17:12;;;;;;;5.00;2.63;;;;;;;;;;4992964;28;20541;-62
2022/08/30 09:19:42;;;;;;;5.90;2.72;;;;;;;;;;4990071;28;20057;-61
2022/08/30 09:22:25;;;;;;;5.03;2.38;;;;;;;;;;4991933;28;20030;-62
2022/08/30 09:25:05;;;;;;;5.65;2.58;;;;;;;;;;4992677;28;20069;-62
2022/08/30 09:27:37;;;;;;;2.85;2.08;;;;;;;;;;4993459;28;20034;-62
2022/08/30 09:30:25;;;;;;;3.63;2.30;;;;;;;;;;4973556;28;20105;-62
2022/08/30 09:32:59;;;;;;;4.07;2.10;;;;;;;;;;4983706;28;20042;-62
2022/08/30 09:35:25;;;;;;;3.92;2.30;;;;;;;;;;4991931;28;20380;-62
2022/08/30 09:37:56;;;;;;;3.78;1.90;;;;;;;;;;4992005;28;20036;-63
2022/08/30 09:40:32;;;;;;;5.30;2.33;;;;;;;;;;4986674;28;20176;-62
2022/08/30 09:43:26;;;;;;;2.78;2.15;;;;;;;;;;4991798;28;20506;-63
2022/08/30 09:45:58;;;;;;;4.47;1.80;;;;;;;;;;4993438;28;20026;-62
2022/08/30 09:48:32;;;;;;;4.60;2.00;;;;;;;;;;4991893;28;20049;-62
2022/08/30 09:51:45;;;;;;;3.15;1.98;;;;;;;;;;4973670;28;20093;-63
2022/08/30 09:54:20;;;;;;;5.72;2.55;;;;;;;;;;4932052;29;20044;-62
2022/08/30 09:56:58;;;;;;;5.25;2.10;;;;;;;;;;4927469;29;20063;-63
2022/08/30 09:59:29;;;;;;;5.03;2.00;;;;;;;;;;4931166;29;20051;-60
2022/08/30 10:02:05;;;;;;;5.03;2.05;;;;;;;;;;4930104;29;20051;-61
2022/08/30 10:04:48;;;;;;;3.90;2.10;;;;;;;;;;4913215;29;20048;-62
2022/08/30 10:07:20;;;;;;;2.47;1.98;;;;;;;;;;4919372;29;20040;-60
2022/08/30 10:10:01;;;;;;;2.60;1.90;;;;;;;;;;4916466;29;20187;-62
2022/08/30 10:12:30;;;;;;;4.80;2.05;;;;;;;;;;4928976;29;20161;-61
2022/08/30 10:14:58;;;;;;;3.15;2.03;;;;;;;;;;4925579;29;20118;-60
2022/08/30 10:17:47;;;;;;;2.60;1.90;;;;;;;;;;4931993;29;20058;-60
2022/08/30 10:20:43;;;;;;;2.33;1.70;;;;;;;;;;4930061;29;20397;-61
2022/08/30 10:23:14;;;;;;;5.32;2.17;;;;;;;;;;4929546;29;20062;-60
2022/08/30 10:25:50;;;;;;;3.38;2.20;;;;;;;;;;4916697;29;20040;-60
2022/08/30 10:28:29;;;;;;;3.20;1.88;;;;;;;;;;4925073;29;20450;-60
2022/08/30 10:31:05;;;;;;;2.92;2.10;;;;;;;;;;4976488;28;20065;-62
2022/08/30 10:33:42;;;;;;;5.03;2.30;;;;;;;;;;4992267;28;20038;-61
2022/08/30 10:36:12;;;;;;;4.18;2.38;;;;;;;;;;4990913;28;20053;-61
2022/08/30 10:38:48;;;;;;;4.32;2.20;;;;;;;;;;4992040;28;20037;-62
2022/08/30 10:41:34;;;;;;;4.20;2.05;;;;;;;;;;4990592;28;20108;-62
2022/08/30 10:44:21;;;;;;;3.70;1.98;;;;;;;;;;4991365;28;20425;-63
2022/08/30 10:46:46;;;;;;;4.05;2.20;;;;;;;;;;4990299;28;20038;-62
2022/08/30 10:49:20;;;;;;;4.03;2.20;;;;;;;;;;4990883;28;20034;-62
2022/08/30 10:51:54;;;;;;;5.82;2.30;;;;;;;;;;4991859;28;20464;-62
2022/08/30 10:54:30;;;;;;;3.75;2.40;;;;;;;;;;4988436;28;20912;-62
2022/08/30 10:56:56;;;;;;;4.38;2.30;;;;;;;;;;4989463;28;20023;-62
2022/08/30 10:59:22;;;;;;;3.58;2.30;;;;;;;;;;4991292;28;20053;-62
2022/08/30 11:02:09;;;;;;;3.03;2.20;;;;;;;;;;4989217;28;20045;-61
2022/08/30 11:04:56;;;;;;;2.58;2.10;;;;;;;;;;4989991;28;20049;-63
2022/08/30 11:07:59;;;;;;;2.97;2.50;;;;;;;;;;4988829;28;20046;-60
2022/08/30 11:10:33;;;;;;;3.55;2.58;;;;;;;;;;4935600;28;20163;-62
2022/08/30 11:13:04;;;;;;;4.43;2.40;;;;;;;;;;4991979;28;20023;-62
2022/08/30 11:15:34;;;;;;;3.45;2.20;;;;;;;;;;4992531;28;20088;-61
2022/08/30 11:18:01;;;;;;;4.90;2.40;;;;;;;;;;4996064;28;20076;-63
2022/08/30 11:20:31;;;;;;;3.40;2.10;;;;;;;;;;4994943;28;20038;-62
2022/08/30 11:23:44;;;;;;;4.05;2.35;;;;;;;;;;4993756;28;20034;-62
2022/08/30 11:26:12;;;;;;;3.38;2.20;;;;;;;;;;4981527;28;20050;-62
2022/08/30 11:28:40;;;;;;;2.50;2.03;;;;;;;;;;4995654;28;20030;-61
2022/08/30 11:31:08;;;;;;;3.05;2.17;;;;;;;;;;4994753;28;20396;-61
2022/08/30 11:33:54;;;;;;;3.55;2.20;;;;;;;;;;4994875;28;20035;-61
2022/08/30 11:36:34;;;;;;;4.75;2.28;;;;;;;;;;4994856;28;20582;-61
2022/08/30 11:39:11;;;;;;;3.05;1.92;;;;;;;;;;4993113;28;20034;-62
2022/08/30 11:41:45;;;;;;;4.10;2.10;;;;;;;;;;4995297;28;20057;-62
2022/08/30 11:44:20;;;;;;;6.45;2.22;;;;;;;;;;4991802;28;20039;-61
2022/08/30 11:46:52;;;;;;;4.53;2.20;;;;;;;;;;4994120;28;20034;-62
2022/08/30 11:49:17;;;;;;;3.67;2.10;;;;;;;;;;4975174;28;20030;-61
2022/08/30 11:52:19;;;;;;;2.95;1.98;;;;;;;;;;4989246;28;20088;-62
2022/08/30 11:55:00;;;;;;;4.03;2.10;;;;;;;;;;4993698;28;20419;-65
2022/08/30 11:57:29;;;;;;;;;;;;;;;;;;4995187;28;20164;-65
2022/08/30 12:00:09;;;;;;;2.70;2.00;;;;;;;;;;4993033;28;19917;-65
2022/08/30 12:02:41;;;;;;;3.38;2.00;;;;;;;;;;4995175;28;20042;-66
2022/08/30 12:05:07;;;;;;;2.88;2.22;;;;;;;;;;4992764;28;20121;-64
2022/08/30 12:07:59;;;;;;;4.03;2.00;;;;;;;;;;4995042;28;20472;-65
2022/08/30 12:10:38;;;;;;;2.80;2.10;;;;;;;;;;4992597;28;20022;-66
2022/08/30 12:13:04;;;;;;;7.80;2.33;;;;;;;;;;4989464;28;20042;-66
2022/08/30 12:15:51;;;;;;;4.35;2.10;;;;;;;;;;4991602;28;20145;-63
2022/08/30 12:18:28;;;;;;;4.82;2.00;;;;;;;;;;4992371;28;20034;-65
2022/08/30 12:21:03;;;;;;;7.30;2.30;;;;;;;;;;4992583;28;20092;-65
2022/08/30 12:24:03;;;;;;;2.63;2.00;;;;;;;;;;4989989;28;20113;-66
2022/08/30 12:26:50;;;;;;;5.50;2.10;;;;;;;;;;4977392;28;20030;-64
2022/08/30 12:29:27;;;;;;;3.75;2.00;;;;;;;;;;4992803;28;20097;-64
2022/08/30 12:31:57;;;;;;;2.63;2.00;;;;;;;;;;4994395;28;20089;-64
2022/08/30 12:34:29;;;;;;;3.13;1.90;;;;;;;;;;4989930;28;20031;-63
2022/08/30 12:37:25;;;;;;;3.67;2.08;;;;;;;;;;4993173;28;20045;-65
2022/08/30 12:40:24;;;;;;;5.88;2.15;;;;;;;;;;4987264;28;20038;-64
2022/08/30 12:42:55;;;;;;;4.45;2.13;;;;;;;;;;4971258;28;20478;-64
2022/08/30 12:45:24;;;;;;;4.13;2.08;;;;;;;;;;4993580;28;20863;-65
2022/08/30 12:48:00;;;;;;;2.80;2.05;;;;;;;;;;4989089;28;20157;-66
2022/08/30 12:50:31;;;;;;;5.97;2.05;;;;;;;;;;4994147;28;20121;-66
2022/08/30 12:53:09;;;;;;;3.80;1.95;;;;;;;;;;4994159;28;20078;-65
2022/08/30 12:55:52;;;;;;;3.95;2.00;;;;;;;;;;4977606;28;20039;-65
2022/08/30 12:58:42;;;;;;;2.67;1.90;;;;;;;;;;4973865;28;20546;-66
2022/08/30 13:01:27;;;;;;;5.25;2.10;;;;;;;;;;4993454;28;20045;-65
2022/08/30 13:04:18;;;;;;;2.72;1.95;;;;;;;;;;4992276;28;20038;-65
2022/08/30 13:06:53;;;;;;;4.13;1.90;;;;;;;;;;4988177;28;20053;-65
2022/08/30 13:09:30;;;;;;;2.72;1.88;;;;;;;;;;4988546;28;20027;-65
2022/08/30 13:11:57;;;;;;;3.25;1.92;;;;;;;;;;4992352;28;20125;-64
2022/08/30 13:14:42;;;;;;;5.07;2.25;;;;;;;;;;4990193;28;20035;-65
2022/08/30 13:17:22;;;;;;;5.03;2.00;;;;;;;;;;4973798;28;20468;-67
2022/08/30 13:20:04;;;;;;;3.80;1.92;;;;;;;;;;4978924;28;20037;-64
2022/08/30 13:22:36;;;;;;;3.45;2.00;;;;;;;;;;4993084;28;20046;-65
2022/08/30 13:25:02;;;;;;;3.75;2.15;;;;;;;;;;4992182;28;20034;-65
2022/08/30 13:27:28;;;;;;;4.22;2.10;;;;;;;;;;4993582;28;20105;-63
2022/08/30 13:29:55;;;;;;;3.22;2.00;;;;;;;;;;4992862;28;20033;-64
2022/08/30 13:32:21;;;;;;;2.78;2.00;;;;;;;;;;4991156;28;20587;-65
2022/08/30 13:34:46;;;;;;;5.00;2.00;;;;;;;;;;4990990;28;20384;-63
2022/08/30 13:37:17;;;;;;;4.20;1.90;;;;;;;;;;4990094;28;20037;-63
2022/08/30 13:39:42;;;;;;;5.80;1.80;;;;;;;;;;4991583;28;20082;-64
2022/08/30 13:42:08;;;;;;;3.38;1.90;;;;;;;;;;4990610;28;20034;-65
2022/08/30 13:44:33;;;;;;;3.35;2.00;;;;;;;;;;4992042;28;20072;-63
2022/08/30 13:46:59;;;;;;;4.40;1.90;;;;;;;;;;4992511;28;20026;-64
2022/08/30 13:49:34;;;;;;;3.13;2.08;;;;;;;;;;4991762;28;20030;-64
2022/08/30 13:52:01;;;;;;;2.50;1.75;;;;;;;;;;4987677;28;20038;-65
2022/08/30 13:54:26;;;;;;;2.63;1.70;;;;;;;;;;4991277;28;20034;-65
2022/08/30 13:56:54;;;;;;;2.70;1.80;;;;;;;;;;4992639;28;20114;-64
2022/08/30 13:59:20;;;;;;;3.92;1.90;;;;;;;;;;4991129;28;20511;-65
2022/08/30 14:01:47;;;;;;;4.25;1.80;;;;;;;;;;4990026;28;20125;-64
2022/08/30 14:04:13;;;;;;;2.42;1.73;;;;;;;;;;4991892;28;20560;-64
2022/08/30 14:06:38;;;;;;;3.03;1.80;;;;;;;;;;4990991;28;20034;-64
2022/08/30 14:09:05;;;;;;;4.13;1.92;;;;;;;;;;4991810;28;20033;-65
2022/08/30 14:11:31;;;;;;;4.72;2.10;;;;;;;;;;4991432;28;20371;-63
2022/08/30 14:13:57;;;;;;;5.18;1.83;;;;;;;;;;4992017;28;20100;-66
2022/08/30 14:16:22;;;;;;;3.30;1.70;;;;;;;;;;4990412;28;20455;-64
2022/08/30 14:18:48;;;;;;;2.63;1.80;;;;;;;;;;4989490;28;20038;-64
2022/08/30 14:21:13;;;;;;;3.30;1.77;;;;;;;;;;4972325;28;20484;-63
2022/08/30 14:23:38;;;;;;;2.28;1.70;;;;;;;;;;4972979;28;20113;-65
2022/08/30 14:26:19;;;;;;;2.67;1.80;;;;;;;;;;4991698;28;20030;-64
2022/08/30 14:28:46;;;;;;;3.72;1.70;;;;;;;;;;4991613;28;20057;-64
2022/08/30 14:31:11;;;;;;;3.22;1.65;;;;;;;;;;4990823;28;20046;-66
2022/08/30 14:33:37;;;;;;;2.55;1.90;;;;;;;;;;4989525;28;20042;-65
2022/08/30 14:36:04;;;;;;;2.28;1.60;;;;;;;;;;4992019;28;20081;-68
2022/08/30 14:38:29;;;;;;;3.38;1.67;;;;;;;;;;4990591;28;20038;-65
2022/08/30 14:40:55;;;;;;;2.47;1.80;;;;;;;;;;4987338;28;20045;-62
2022/08/30 14:43:23;;;;;;;5.40;1.80;;;;;;;;;;4983636;28;20045;-63
2022/08/30 14:45:49;;;;;;;2.97;1.60;;;;;;;;;;4986724;28;20041;-63
2022/08/30 14:48:14;;;;;;;4.22;2.05;;;;;;;;;;4988119;28;20046;-63
2022/08/30 14:50:40;;;;;;;2.20;1.70;;;;;;;;;;4989652;28;20030;-64
2022/08/30 14:53:05;;;;;;;5.00;2.10;;;;;;;;;;4988311;28;20186;-67
2022/08/30 14:55:33;;;;;;;2.85;1.85;;;;;;;;;;4975741;28;20030;-65
2022/08/30 14:57:58;;;;;;;5.78;1.70;;;;;;;;;;4992042;28;20034;-64
2022/08/30 15:00:24;;;;;;;2.88;1.63;;;;;;;;;;4989016;28;20114;-64
2022/08/30 15:02:50;;;;;;;2.33;1.65;;;;;;;;;;4989671;28;20498;-66
2022/08/30 15:05:16;;;;;;;3.10;1.70;;;;;;;;;;4990716;28;20110;-65